createdAt,value
2023-05-13T00:02:08.351Z,8.38
2023-05-13T00:06:11.055Z,8.40
2023-05-13T00:10:14.177Z,8.36
2023-05-13T00:14:18.131Z,8.31
2023-05-13T00:18:20.798Z,8.31
2023-05-13T00:22:23.407Z,8.28
2023-05-13T00:26:26.233Z,8.23
2023-05-13T00:30:30.245Z,8.22
2023-05-13T00:34:33.064Z,8.23
2023-05-13T00:38:35.685Z,8.18
2023-05-13T00:42:38.293Z,8.17
2023-05-13T00:46:42.714Z,8.19
2023-05-13T00:50:45.545Z,8.20
2023-05-13T00:54:48.142Z,8.19
2023-05-13T00:58:50.874Z,8.15
2023-05-13T01:03:06.155Z,8.16
2023-05-13T01:07:15.332Z,8.15
2023-05-13T01:11:22.868Z,8.15
2023-05-13T01:15:27.202Z,8.10
2023-05-13T01:19:43.039Z,8.08
2023-05-13T01:23:46.975Z,8.07
2023-05-13T01:27:49.763Z,8.08
2023-05-13T01:31:53.435Z,8.06
2023-05-13T01:35:56.239Z,8.03
2023-05-13T01:40:00.760Z,8.04
2023-05-13T01:44:03.550Z,8.03
2023-05-13T01:48:06.852Z,8.04
2023-05-13T01:52:09.608Z,8.04
2023-05-13T01:56:13.547Z,8.03
2023-05-13T02:00:17.135Z,8.07
2023-05-13T02:04:19.752Z,8.05
2023-05-13T02:08:23.615Z,8.06
2023-05-13T02:12:27.934Z,8.05
2023-05-13T02:16:32.120Z,8.06
2023-05-13T02:20:34.718Z,8.07
2023-05-13T02:24:40.490Z,8.07
2023-05-13T02:28:44.480Z,8.06
2023-05-13T02:32:47.203Z,8.14
2023-05-13T02:36:49.843Z,8.10
2023-05-13T02:40:52.497Z,8.10
2023-05-13T02:44:56.436Z,8.12
2023-05-13T02:48:59.392Z,8.14
2023-05-13T02:53:02.132Z,8.12
2023-05-13T02:57:05.009Z,8.12
2023-05-13T03:01:08.989Z,8.15
2023-05-13T03:05:11.608Z,8.17
2023-05-13T03:09:14.217Z,8.19
2023-05-13T03:13:16.897Z,8.24
2023-05-13T03:17:20.990Z,8.27
2023-05-13T03:21:23.657Z,8.28
2023-05-13T03:25:26.368Z,8.28
2023-05-13T03:29:28.972Z,8.28
2023-05-13T03:33:32.954Z,8.32
2023-05-13T03:37:35.559Z,8.32
2023-05-13T03:41:38.226Z,8.28
2023-05-13T03:45:40.809Z,8.28
2023-05-13T03:49:44.761Z,8.32
2023-05-13T03:53:47.343Z,8.32
2023-05-13T03:57:50.687Z,8.33
2023-05-13T04:01:53.435Z,8.37
2023-05-13T04:05:57.433Z,8.40
2023-05-13T04:10:00.023Z,8.42
2023-05-13T04:14:02.648Z,8.45
2023-05-13T04:18:05.423Z,8.50
2023-05-13T04:22:09.450Z,8.48
2023-05-13T04:26:12.445Z,8.50
2023-05-13T04:30:15.955Z,8.54
2023-05-13T04:34:18.541Z,8.57
2023-05-13T04:38:22.537Z,8.57
2023-05-13T04:42:25.248Z,8.61
2023-05-13T04:46:27.885Z,8.62
2023-05-13T04:50:30.875Z,8.67
2023-05-13T04:54:36.005Z,8.69
2023-05-13T04:58:38.600Z,8.70
2023-05-13T05:02:41.292Z,8.75
2023-05-13T05:06:43.895Z,8.81
2023-05-13T05:10:47.879Z,8.86
2023-05-13T05:14:50.484Z,8.90
2023-05-13T05:18:53.127Z,8.96
2023-05-13T05:22:56.187Z,8.97
2023-05-13T05:27:00.260Z,9.03
2023-05-13T05:31:03.043Z,9.07
2023-05-13T05:35:06.439Z,9.15
2023-05-13T05:39:09.088Z,9.18
2023-05-13T05:43:14.070Z,9.20
2023-05-13T05:47:16.646Z,9.24
2023-05-13T05:51:19.236Z,9.36
2023-05-13T05:55:22.265Z,9.57
2023-05-13T05:59:26.467Z,9.71
2023-05-13T06:03:29.249Z,9.75
2023-05-13T06:07:31.951Z,9.81
2023-05-13T06:11:34.564Z,9.87
2023-05-13T06:15:39.354Z,9.91
2023-05-13T06:19:42.875Z,9.96
2023-05-13T06:23:45.623Z,10.04
2023-05-13T06:27:48.212Z,10.03
2023-05-13T06:31:52.254Z,10.06
2023-05-13T06:35:54.911Z,10.11
2023-05-13T06:39:58.251Z,10.20
2023-05-13T06:44:00.872Z,10.29
2023-05-13T06:48:04.909Z,10.32
2023-05-13T06:52:08.766Z,10.34
2023-05-13T06:56:11.408Z,10.39
2023-05-13T07:00:15.036Z,10.45
2023-05-13T07:04:19.214Z,10.56
2023-05-13T07:08:22.026Z,10.67
2023-05-13T07:12:25.079Z,10.79
2023-05-13T07:16:27.688Z,10.89
2023-05-13T07:20:31.747Z,11.02
2023-05-13T07:24:34.573Z,11.11
2023-05-13T07:28:37.310Z,11.13
2023-05-13T07:32:41.052Z,11.15
2023-05-13T07:36:45.493Z,11.16
2023-05-13T07:40:48.112Z,11.20
2023-05-13T07:44:50.888Z,11.31
2023-05-13T07:48:53.950Z,11.32
2023-05-13T07:52:57.927Z,11.47
2023-05-13T07:57:00.536Z,11.59
2023-05-13T08:01:04.111Z,11.61
2023-05-13T08:05:08.080Z,11.55
2023-05-13T08:09:12.575Z,11.62
2023-05-13T08:13:15.275Z,11.77
2023-05-13T08:17:18.890Z,11.96
2023-05-13T08:21:21.536Z,12.04
2023-05-13T08:25:25.740Z,12.17
2023-05-13T08:29:28.927Z,12.22
2023-05-13T08:33:31.904Z,12.24
2023-05-13T08:37:34.514Z,12.22
2023-05-13T08:41:39.079Z,12.15
2023-05-13T08:45:42.848Z,12.11
2023-05-13T08:49:46.502Z,12.23
2023-05-13T08:53:49.852Z,12.33
2023-05-13T08:57:54.770Z,12.37
2023-05-13T09:02:00.246Z,12.36
2023-05-13T09:06:03.219Z,12.50
2023-05-13T09:10:06.886Z,12.62
2023-05-13T09:14:12.242Z,12.43
2023-05-13T09:18:18.670Z,12.31
2023-05-13T09:22:21.932Z,12.21
2023-05-13T09:26:28.167Z,12.12
2023-05-13T09:30:34.949Z,12.24
2023-05-13T09:34:37.591Z,12.29
2023-05-13T09:38:40.234Z,12.40
2023-05-13T09:42:44.082Z,12.52
2023-05-13T09:46:49.334Z,12.73
2023-05-13T09:50:52.547Z,12.92
2023-05-13T09:54:57.499Z,13.06
2023-05-13T09:59:00.172Z,13.47
2023-05-13T10:03:06.109Z,13.66
2023-05-13T10:07:10.654Z,13.84
2023-05-13T10:11:15.827Z,14.06
2023-05-13T10:15:19.086Z,14.06
2023-05-13T10:19:24.263Z,14.00
2023-05-13T10:23:27.282Z,13.89
2023-05-13T10:27:30.918Z,14.17
2023-05-13T10:31:34.070Z,14.38
2023-05-13T10:35:42.995Z,14.46
2023-05-13T10:40:07.574Z,14.57
2023-05-13T10:44:10.459Z,14.89
2023-05-13T10:48:16.006Z,14.89
2023-05-13T10:52:20.826Z,14.87
2023-05-13T10:56:25.247Z,14.90
2023-05-13T11:00:32.530Z,14.68
2023-05-13T11:04:35.148Z,14.35
2023-05-13T11:08:40.490Z,14.22
2023-05-13T11:12:43.145Z,13.99
2023-05-13T11:16:53.268Z,13.93
2023-05-13T11:20:56.463Z,13.89
2023-05-13T11:25:09.093Z,14.01
2023-05-13T11:29:11.748Z,14.07
2023-05-13T11:33:14.383Z,14.10
2023-05-13T11:37:17.304Z,14.20
2023-05-13T11:41:22.400Z,14.41
2023-05-13T11:45:26.957Z,14.88
2023-05-13T11:49:37.448Z,15.31
2023-05-13T11:53:40.163Z,15.29
2023-05-13T11:57:49.356Z,15.16
2023-05-13T12:02:02.100Z,15.13
2023-05-13T12:06:05.759Z,15.85
2023-05-13T12:10:09.196Z,16.54
2023-05-13T12:14:13.290Z,16.84
2023-05-13T12:18:16.566Z,16.36
2023-05-13T12:22:22.624Z,15.48
2023-05-13T12:26:25.406Z,14.85
2023-05-13T12:30:34.930Z,14.47
2023-05-13T12:34:38.912Z,14.26
2023-05-13T12:38:54.335Z,14.13
2023-05-13T12:42:58.819Z,14.28
2023-05-13T12:47:03.597Z,14.28
2023-05-13T12:51:06.419Z,14.50
2023-05-13T12:55:10.126Z,14.73
2023-05-13T12:59:13.441Z,14.98
2023-05-13T13:03:17.568Z,15.05
2023-05-13T13:07:20.299Z,15.12
2023-05-13T13:11:23.163Z,15.27
2023-05-13T13:15:25.812Z,15.33
2023-05-13T13:19:29.791Z,15.47
2023-05-13T13:23:32.430Z,15.61
2023-05-13T13:27:35.910Z,15.93
2023-05-13T13:31:38.542Z,16.20
2023-05-13T13:35:44.260Z,16.38
2023-05-13T13:39:46.841Z,16.29
2023-05-13T13:43:49.481Z,15.71
2023-05-13T13:47:52.263Z,15.14
2023-05-13T13:51:56.279Z,14.83
2023-05-13T13:55:58.908Z,14.82
2023-05-13T14:00:01.593Z,14.80
2023-05-13T14:04:15.029Z,14.83
2023-05-13T14:08:18.980Z,15.06
2023-05-13T14:12:21.597Z,15.23
2023-05-13T14:16:24.527Z,15.27
2023-05-13T14:20:28.906Z,15.32
2023-05-13T14:24:33.052Z,15.41
2023-05-13T14:28:36.054Z,15.32
2023-05-13T14:32:38.786Z,15.27
2023-05-13T14:36:41.447Z,15.28
2023-05-13T14:40:45.468Z,15.21
2023-05-13T14:44:48.083Z,15.27
2023-05-13T14:48:50.685Z,15.43
2023-05-13T14:52:53.367Z,15.46
2023-05-13T14:56:57.323Z,15.55
2023-05-13T15:00:59.944Z,15.75
2023-05-13T15:05:02.721Z,15.80
2023-05-13T15:09:05.802Z,15.83
2023-05-13T15:13:09.847Z,16.36
2023-05-13T15:17:13.146Z,16.51
2023-05-13T15:21:16.873Z,16.57
2023-05-13T15:25:19.796Z,16.70
2023-05-13T15:29:23.751Z,17.91
2023-05-13T15:33:27.319Z,17.43
2023-05-13T15:37:29.914Z,16.70
2023-05-13T15:41:32.503Z,16.54
2023-05-13T15:45:36.925Z,16.33
2023-05-13T15:49:39.576Z,15.97
2023-05-13T15:53:42.176Z,16.44
2023-05-13T15:57:44.828Z,16.55
2023-05-13T16:01:48.920Z,16.38
2023-05-13T16:05:51.978Z,15.97
2023-05-13T16:09:54.591Z,16.06
2023-05-13T16:13:57.331Z,16.99
2023-05-13T16:18:01.288Z,17.61
2023-05-13T16:22:25.188Z,17.88
2023-05-13T16:26:27.839Z,17.71
2023-05-13T16:30:30.798Z,17.49
2023-05-13T16:34:34.843Z,17.40
2023-05-13T16:38:38.757Z,17.28
2023-05-13T16:42:41.386Z,17.17
2023-05-13T16:46:44.310Z,17.01
2023-05-13T16:50:48.206Z,17.03
2023-05-13T16:54:51.131Z,16.96
2023-05-13T16:58:53.983Z,16.71
2023-05-13T17:02:56.726Z,16.52
2023-05-13T17:07:00.903Z,16.33
2023-05-13T17:11:03.561Z,15.95
2023-05-13T17:15:07.270Z,15.81
2023-05-13T17:19:09.959Z,15.86
2023-05-13T17:23:13.998Z,15.74
2023-05-13T17:27:16.655Z,15.45
2023-05-13T17:31:20.936Z,15.50
2023-05-13T17:35:23.540Z,15.52
2023-05-13T17:39:27.502Z,15.59
2023-05-13T17:43:30.348Z,15.31
2023-05-13T17:47:33.540Z,15.02
2023-05-13T17:51:36.205Z,14.76
2023-05-13T17:55:40.160Z,14.65
2023-05-13T17:59:43.410Z,14.69
2023-05-13T18:03:46.012Z,14.51
2023-05-13T18:07:48.629Z,14.33
2023-05-13T18:11:52.573Z,14.18
2023-05-13T18:15:55.555Z,13.94
2023-05-13T18:19:58.386Z,13.95
2023-05-13T18:24:01.163Z,13.72
2023-05-13T18:28:05.581Z,13.52
2023-05-13T18:32:08.457Z,13.36
2023-05-13T18:36:11.108Z,13.18
2023-05-13T18:40:13.965Z,13.23
2023-05-13T18:44:18.040Z,13.24
2023-05-13T18:48:20.739Z,13.14
2023-05-13T18:52:23.366Z,13.00
2023-05-13T18:56:26.262Z,12.93
2023-05-13T19:00:30.162Z,12.85
2023-05-13T19:04:32.892Z,12.87
2023-05-13T19:08:35.651Z,12.87
2023-05-13T19:12:38.237Z,12.90
2023-05-13T19:16:42.274Z,12.90
2023-05-13T19:20:46.368Z,12.92
2023-05-13T19:24:49.017Z,12.89
2023-05-13T19:28:51.650Z,12.83
2023-05-13T19:32:55.963Z,12.69
2023-05-13T19:36:58.779Z,12.65
2023-05-13T19:41:01.717Z,12.56
2023-05-13T19:45:06.280Z,12.55
2023-05-13T19:49:10.279Z,12.52
2023-05-13T19:53:13.528Z,12.51
2023-05-13T19:57:16.344Z,12.42
2023-05-13T20:01:19.180Z,12.43
2023-05-13T20:05:23.220Z,12.51
2023-05-13T20:09:26.845Z,12.56
2023-05-13T20:13:29.409Z,12.33
2023-05-13T20:17:32.160Z,12.19
2023-05-13T20:21:36.294Z,12.24
2023-05-13T20:25:38.883Z,12.27
2023-05-13T20:29:44.345Z,12.29
2023-05-13T20:33:46.931Z,12.35
2023-05-13T20:37:50.861Z,12.28
2023-05-13T20:41:53.560Z,12.25
2023-05-13T20:45:56.413Z,12.21
2023-05-13T20:49:59.054Z,12.22
2023-05-13T20:54:02.991Z,12.18
2023-05-13T20:58:05.553Z,12.18
2023-05-13T21:02:08.281Z,12.17
2023-05-13T21:06:11.335Z,11.92
2023-05-13T21:10:16.087Z,11.92
2023-05-13T21:14:18.696Z,11.95
2023-05-13T21:18:21.300Z,11.93
2023-05-13T21:22:23.918Z,11.92
2023-05-13T21:26:27.875Z,11.91
2023-05-13T21:30:32.102Z,11.85
2023-05-13T21:34:34.659Z,11.82
2023-05-13T21:38:37.226Z,11.78
2023-05-13T21:42:41.201Z,11.65
2023-05-13T21:46:43.787Z,11.50
2023-05-13T21:50:46.380Z,11.39
2023-05-13T21:54:48.937Z,11.31
2023-05-13T21:58:52.844Z,11.30
2023-05-13T22:06:59.833Z,11.20
2023-05-13T22:11:02.385Z,11.09
2023-05-13T22:15:07.680Z,10.99
2023-05-13T22:19:10.469Z,10.97
2023-05-13T22:23:13.245Z,10.97
2023-05-13T22:27:15.896Z,10.96
2023-05-13T22:31:19.926Z,10.90
2023-05-13T22:35:22.546Z,10.82
2023-05-13T22:39:26.580Z,10.72
2023-05-13T22:43:29.202Z,10.66
2023-05-13T22:47:33.138Z,10.63
2023-05-13T22:51:35.730Z,10.58
2023-05-13T22:55:38.512Z,10.53
2023-05-13T22:59:41.256Z,10.48
2023-05-13T23:03:45.370Z,10.41
2023-05-13T23:07:48.013Z,10.28
2023-05-13T23:11:50.594Z,10.19
2023-05-13T23:15:53.469Z,10.07
2023-05-13T23:19:57.559Z,9.95
2023-05-13T23:24:00.175Z,9.83
2023-05-13T23:28:03.461Z,9.82
2023-05-13T23:32:07.147Z,9.80
2023-05-13T23:36:11.335Z,9.79
2023-05-13T23:40:14.615Z,9.82
2023-05-13T23:44:17.330Z,9.89
2023-05-13T23:48:19.923Z,10.00
2023-05-13T23:52:24.066Z,10.03
2023-05-13T23:56:26.700Z,10.04
